sensor_id;sensor_type;location;lat;lon;timestamp;temperature;humidity
66728;DHT22;53641;44.274;19.890;2022-10-22T00:00:19;14.40;99.90
66728;DHT22;53641;44.274;19.890;2022-10-22T00:02:45;14.40;99.90
66728;DHT22;53641;44.274;19.890;2022-10-22T00:05:11;14.50;99.90
66728;DHT22;53641;44.274;19.890;2022-10-22T00:07:37;14.50;99.90
66728;DHT22;53641;44.274;19.890;2022-10-22T00:10:04;14.50;99.90
66728;DHT22;53641;44.274;19.890;2022-10-22T00:12:30;14.50;99.90
66728;DHT22;53641;44.274;19.890;2022-10-22T00:14:56;14.50;99.90
66728;DHT22;53641;44.274;19.890;2022-10-22T00:17:22;14.60;99.90
66728;DHT22;53641;44.274;19.890;2022-10-22T00:19:48;14.60;99.90
66728;DHT22;53641;44.274;19.890;2022-10-22T00:22:18;14.60;99.90
66728;DHT22;53641;44.274;19.890;2022-10-22T00:24:47;14.60;99.90
66728;DHT22;53641;44.274;19.890;2022-10-22T00:27:13;14.70;99.90
66728;DHT22;53641;44.274;19.890;2022-10-22T00:29:39;14.60;99.90
66728;DHT22;53641;44.274;19.890;2022-10-22T00:32:05;14.60;99.90
66728;DHT22;53641;44.274;19.890;2022-10-22T00:34:31;14.60;99.90
66728;DHT22;53641;44.274;19.890;2022-10-22T00:36:59;14.60;99.90
66728;DHT22;53641;44.274;19.890;2022-10-22T00:39:26;14.60;99.90
66728;DHT22;53641;44.274;19.890;2022-10-22T00:41:58;14.50;99.90
66728;DHT22;53641;44.274;19.890;2022-10-22T00:45:00;14.30;99.90
66728;DHT22;53641;44.274;19.890;2022-10-22T00:47:36;14.30;99.90
66728;DHT22;53641;44.274;19.890;2022-10-22T00:50:08;14.30;99.90
66728;DHT22;53641;44.274;19.890;2022-10-22T00:52:38;14.40;99.90
66728;DHT22;53641;44.274;19.890;2022-10-22T00:55:05;14.40;99.90
66728;DHT22;53641;44.274;19.890;2022-10-22T00:57:32;14.40;99.90
66728;DHT22;53641;44.274;19.890;2022-10-22T00:59:58;14.40;99.90
66728;DHT22;53641;44.274;19.890;2022-10-22T01:02:24;14.30;99.90
66728;DHT22;53641;44.274;19.890;2022-10-22T01:04:51;14.40;99.90
66728;DHT22;53641;44.274;19.890;2022-10-22T01:07:22;14.40;99.90
66728;DHT22;53641;44.274;19.890;2022-10-22T01:10:07;14.40;99.90
66728;DHT22;53641;44.274;19.890;2022-10-22T01:12:56;14.40;99.90
66728;DHT22;53641;44.274;19.890;2022-10-22T01:15:34;14.40;99.90
66728;DHT22;53641;44.274;19.890;2022-10-22T01:18:07;14.40;99.90
66728;DHT22;53641;44.274;19.890;2022-10-22T01:20:58;14.40;99.90
66728;DHT22;53641;44.274;19.890;2022-10-22T01:23:44;14.40;99.90
66728;DHT22;53641;44.274;19.890;2022-10-22T01:26:23;14.30;99.90
66728;DHT22;53641;44.274;19.890;2022-10-22T01:29:08;14.40;99.90
66728;DHT22;53641;44.274;19.890;2022-10-22T01:31:40;14.40;99.90
66728;DHT22;53641;44.274;19.890;2022-10-22T01:34:10;14.40;99.90
66728;DHT22;53641;44.274;19.890;2022-10-22T01:36:38;14.40;99.90
66728;DHT22;53641;44.274;19.890;2022-10-22T01:39:07;14.40;99.90
66728;DHT22;53641;44.274;19.890;2022-10-22T01:41:34;14.30;99.90
66728;DHT22;53641;44.274;19.890;2022-10-22T01:44:00;14.20;99.90
66728;DHT22;53641;44.274;19.890;2022-10-22T01:46:27;14.30;99.90
66728;DHT22;53641;44.274;19.890;2022-10-22T01:49:15;14.10;99.90
66728;DHT22;53641;44.274;19.890;2022-10-22T01:51:57;14.00;99.90
66728;DHT22;53641;44.274;19.890;2022-10-22T01:57:38;14.00;99.90
66728;DHT22;53641;44.274;19.890;2022-10-22T02:00:09;14.00;99.90
66728;DHT22;53641;44.274;19.890;2022-10-22T02:03:01;14.00;99.90
66728;DHT22;53641;44.274;19.890;2022-10-22T02:05:36;14.00;99.90
66728;DHT22;53641;44.274;19.890;2022-10-22T02:08:08;14.00;99.90
66728;DHT22;53641;44.274;19.890;2022-10-22T02:10:37;14.00;99.90
66728;DHT22;53641;44.274;19.890;2022-10-22T02:13:07;14.00;99.90
66728;DHT22;53641;44.274;19.890;2022-10-22T02:15:36;14.00;99.90
66728;DHT22;53641;44.274;19.890;2022-10-22T02:18:05;14.00;99.90
66728;DHT22;53641;44.274;19.890;2022-10-22T02:20:35;14.10;99.90
66728;DHT22;53641;44.274;19.890;2022-10-22T02:23:02;14.10;99.90
66728;DHT22;53641;44.274;19.890;2022-10-22T02:25:32;14.10;99.90
66728;DHT22;53641;44.274;19.890;2022-10-22T02:28:14;14.20;99.90
66728;DHT22;53641;44.274;19.890;2022-10-22T02:30:43;14.20;99.90
66728;DHT22;53641;44.274;19.890;2022-10-22T02:33:15;14.20;99.90
66728;DHT22;53641;44.274;19.890;2022-10-22T02:35:43;14.10;99.90
66728;DHT22;53641;44.274;19.890;2022-10-22T02:38:10;14.10;99.90
66728;DHT22;53641;44.274;19.890;2022-10-22T02:40:37;14.10;99.90
66728;DHT22;53641;44.274;19.890;2022-10-22T02:43:04;14.00;99.90
66728;DHT22;53641;44.274;19.890;2022-10-22T02:45:30;14.00;99.90
66728;DHT22;53641;44.274;19.890;2022-10-22T02:47:56;13.90;99.90
66728;DHT22;53641;44.274;19.890;2022-10-22T02:50:22;13.90;99.90
66728;DHT22;53641;44.274;19.890;2022-10-22T02:52:48;13.90;99.90
66728;DHT22;53641;44.274;19.890;2022-10-22T02:55:14;13.90;99.90
66728;DHT22;53641;44.274;19.890;2022-10-22T02:57:40;13.90;99.90
66728;DHT22;53641;44.274;19.890;2022-10-22T03:00:07;13.90;99.90
66728;DHT22;53641;44.274;19.890;2022-10-22T03:02:33;13.90;99.90
66728;DHT22;53641;44.274;19.890;2022-10-22T03:04:59;13.90;99.90
66728;DHT22;53641;44.274;19.890;2022-10-22T03:07:25;13.90;99.90
66728;DHT22;53641;44.274;19.890;2022-10-22T03:09:51;13.80;99.90
66728;DHT22;53641;44.274;19.890;2022-10-22T03:12:17;13.70;99.90
66728;DHT22;53641;44.274;19.890;2022-10-22T03:14:42;13.70;99.90
66728;DHT22;53641;44.274;19.890;2022-10-22T03:17:09;13.70;99.90
66728;DHT22;53641;44.274;19.890;2022-10-22T03:19:34;13.70;99.90
66728;DHT22;53641;44.274;19.890;2022-10-22T03:22:04;13.70;99.90
66728;DHT22;53641;44.274;19.890;2022-10-22T03:24:34;13.50;99.90
66728;DHT22;53641;44.274;19.890;2022-10-22T03:27:01;13.50;99.90
66728;DHT22;53641;44.274;19.890;2022-10-22T03:29:27;13.50;99.90
66728;DHT22;53641;44.274;19.890;2022-10-22T03:31:54;13.40;99.90
66728;DHT22;53641;44.274;19.890;2022-10-22T03:34:20;13.40;99.90
66728;DHT22;53641;44.274;19.890;2022-10-22T03:36:46;13.50;99.90
66728;DHT22;53641;44.274;19.890;2022-10-22T03:39:13;13.50;99.90
66728;DHT22;53641;44.274;19.890;2022-10-22T03:41:40;13.60;99.90
66728;DHT22;53641;44.274;19.890;2022-10-22T03:44:06;13.60;99.90
66728;DHT22;53641;44.274;19.890;2022-10-22T03:46:32;13.50;99.90
66728;DHT22;53641;44.274;19.890;2022-10-22T03:48:58;13.50;99.90
66728;DHT22;53641;44.274;19.890;2022-10-22T03:51:26;13.50;99.90
66728;DHT22;53641;44.274;19.890;2022-10-22T03:53:52;13.50;99.90
66728;DHT22;53641;44.274;19.890;2022-10-22T03:56:18;13.50;99.90
66728;DHT22;53641;44.274;19.890;2022-10-22T03:58:44;13.50;99.90
66728;DHT22;53641;44.274;19.890;2022-10-22T04:01:12;13.50;99.90
66728;DHT22;53641;44.274;19.890;2022-10-22T04:03:38;13.50;99.90
66728;DHT22;53641;44.274;19.890;2022-10-22T04:06:08;13.50;99.90
66728;DHT22;53641;44.274;19.890;2022-10-22T04:08:34;13.50;99.90
66728;DHT22;53641;44.274;19.890;2022-10-22T04:11:00;13.40;99.90
66728;DHT22;53641;44.274;19.890;2022-10-22T04:13:26;13.40;99.90
66728;DHT22;53641;44.274;19.890;2022-10-22T04:15:52;13.40;99.90
66728;DHT22;53641;44.274;19.890;2022-10-22T04:18:19;13.40;99.90
66728;DHT22;53641;44.274;19.890;2022-10-22T04:20:44;13.50;99.90
66728;DHT22;53641;44.274;19.890;2022-10-22T04:23:10;13.50;99.90
66728;DHT22;53641;44.274;19.890;2022-10-22T04:25:36;13.50;99.90
66728;DHT22;53641;44.274;19.890;2022-10-22T04:28:04;13.60;99.90
66728;DHT22;53641;44.274;19.890;2022-10-22T04:30:30;13.60;99.90
66728;DHT22;53641;44.274;19.890;2022-10-22T04:32:56;13.60;99.90
66728;DHT22;53641;44.274;19.890;2022-10-22T04:35:22;13.50;99.90
66728;DHT22;53641;44.274;19.890;2022-10-22T04:37:47;13.50;99.90
66728;DHT22;53641;44.274;19.890;2022-10-22T04:40:13;13.40;99.90
66728;DHT22;53641;44.274;19.890;2022-10-22T04:42:39;13.00;99.90
66728;DHT22;53641;44.274;19.890;2022-10-22T04:45:05;12.90;99.90
66728;DHT22;53641;44.274;19.890;2022-10-22T04:47:31;13.00;99.90
66728;DHT22;53641;44.274;19.890;2022-10-22T04:49:56;13.10;99.90
66728;DHT22;53641;44.274;19.890;2022-10-22T04:52:22;13.10;99.90
66728;DHT22;53641;44.274;19.890;2022-10-22T04:54:48;13.10;99.90
66728;DHT22;53641;44.274;19.890;2022-10-22T04:57:14;13.00;99.90
66728;DHT22;53641;44.274;19.890;2022-10-22T04:59:39;13.10;99.90
66728;DHT22;53641;44.274;19.890;2022-10-22T05:02:05;13.00;99.90
66728;DHT22;53641;44.274;19.890;2022-10-22T05:04:31;13.00;99.90
66728;DHT22;53641;44.274;19.890;2022-10-22T05:06:57;13.10;99.90
66728;DHT22;53641;44.274;19.890;2022-10-22T05:09:22;13.10;99.90
66728;DHT22;53641;44.274;19.890;2022-10-22T05:11:50;13.10;99.90
66728;DHT22;53641;44.274;19.890;2022-10-22T05:14:18;13.10;99.90
66728;DHT22;53641;44.274;19.890;2022-10-22T05:16:44;13.10;99.90
66728;DHT22;53641;44.274;19.890;2022-10-22T05:19:23;13.10;99.90
66728;DHT22;53641;44.274;19.890;2022-10-22T05:21:55;12.90;99.90
66728;DHT22;53641;44.274;19.890;2022-10-22T05:24:22;12.90;99.90
66728;DHT22;53641;44.274;19.890;2022-10-22T05:26:53;12.90;99.90
66728;DHT22;53641;44.274;19.890;2022-10-22T05:29:19;12.90;99.90
66728;DHT22;53641;44.274;19.890;2022-10-22T05:31:45;12.80;99.90
66728;DHT22;53641;44.274;19.890;2022-10-22T05:34:11;12.80;99.90
66728;DHT22;53641;44.274;19.890;2022-10-22T05:36:39;12.80;99.90
66728;DHT22;53641;44.274;19.890;2022-10-22T05:39:05;12.80;99.90
66728;DHT22;53641;44.274;19.890;2022-10-22T05:41:32;13.00;99.90
66728;DHT22;53641;44.274;19.890;2022-10-22T05:43:59;13.10;99.90
66728;DHT22;53641;44.274;19.890;2022-10-22T05:46:27;13.10;99.90
66728;DHT22;53641;44.274;19.890;2022-10-22T05:48:55;13.20;99.90
66728;DHT22;53641;44.274;19.890;2022-10-22T05:51:22;13.10;99.90
66728;DHT22;53641;44.274;19.890;2022-10-22T05:53:53;13.20;99.90
66728;DHT22;53641;44.274;19.890;2022-10-22T05:56:24;13.20;99.90
66728;DHT22;53641;44.274;19.890;2022-10-22T05:58:50;13.20;99.90
66728;DHT22;53641;44.274;19.890;2022-10-22T06:01:17;13.20;99.90
66728;DHT22;53641;44.274;19.890;2022-10-22T06:03:44;13.20;99.90
66728;DHT22;53641;44.274;19.890;2022-10-22T06:06:20;13.30;99.90
66728;DHT22;53641;44.274;19.890;2022-10-22T06:08:48;13.40;99.90
66728;DHT22;53641;44.274;19.890;2022-10-22T06:11:15;13.30;99.90
66728;DHT22;53641;44.274;19.890;2022-10-22T06:13:42;13.40;99.90
66728;DHT22;53641;44.274;19.890;2022-10-22T06:16:08;13.40;99.90
66728;DHT22;53641;44.274;19.890;2022-10-22T06:18:34;13.40;99.90
66728;DHT22;53641;44.274;19.890;2022-10-22T06:21:03;13.50;99.90
66728;DHT22;53641;44.274;19.890;2022-10-22T06:23:29;13.60;99.90
66728;DHT22;53641;44.274;19.890;2022-10-22T06:25:59;13.70;99.90
66728;DHT22;53641;44.274;19.890;2022-10-22T06:28:25;13.80;99.90
66728;DHT22;53641;44.274;19.890;2022-10-22T06:30:51;14.00;99.90
66728;DHT22;53641;44.274;19.890;2022-10-22T06:33:17;14.40;99.90
66728;DHT22;53641;44.274;19.890;2022-10-22T06:35:42;14.80;99.90
66728;DHT22;53641;44.274;19.890;2022-10-22T06:38:12;15.40;99.90
66728;DHT22;53641;44.274;19.890;2022-10-22T06:40:37;16.20;99.90
66728;DHT22;53641;44.274;19.890;2022-10-22T06:43:06;16.70;99.90
66728;DHT22;53641;44.274;19.890;2022-10-22T06:45:31;17.30;99.90
66728;DHT22;53641;44.274;19.890;2022-10-22T06:47:57;17.80;99.90
66728;DHT22;53641;44.274;19.890;2022-10-22T06:50:23;18.30;99.90
66728;DHT22;53641;44.274;19.890;2022-10-22T06:52:51;18.60;99.50
66728;DHT22;53641;44.274;19.890;2022-10-22T06:55:17;18.90;98.70
66728;DHT22;53641;44.274;19.890;2022-10-22T06:57:43;18.80;98.30
66728;DHT22;53641;44.274;19.890;2022-10-22T07:00:09;18.60;98.70
66728;DHT22;53641;44.274;19.890;2022-10-22T07:02:35;18.50;98.50
66728;DHT22;53641;44.274;19.890;2022-10-22T07:05:00;18.30;98.40
66728;DHT22;53641;44.274;19.890;2022-10-22T07:07:26;18.40;98.40
66728;DHT22;53641;44.274;19.890;2022-10-22T07:09:52;18.70;98.20
66728;DHT22;53641;44.274;19.890;2022-10-22T07:12:18;18.90;97.70
66728;DHT22;53641;44.274;19.890;2022-10-22T07:14:44;19.30;97.30
66728;DHT22;53641;44.274;19.890;2022-10-22T07:17:09;19.50;97.10
66728;DHT22;53641;44.274;19.890;2022-10-22T07:19:35;19.70;97.20
66728;DHT22;53641;44.274;19.890;2022-10-22T07:22:01;19.50;97.10
66728;DHT22;53641;44.274;19.890;2022-10-22T07:24:27;19.40;96.90
66728;DHT22;53641;44.274;19.890;2022-10-22T07:27:17;19.10;96.30
66728;DHT22;53641;44.274;19.890;2022-10-22T07:29:45;18.90;96.30
66728;DHT22;53641;44.274;19.890;2022-10-22T07:32:25;18.60;96.60
66728;DHT22;53641;44.274;19.890;2022-10-22T07:34:58;18.80;96.70
66728;DHT22;53641;44.274;19.890;2022-10-22T07:37:49;19.20;96.70
66728;DHT22;53641;44.274;19.890;2022-10-22T07:40:24;19.70;96.00
66728;DHT22;53641;44.274;19.890;2022-10-22T07:43:13;20.10;95.70
66728;DHT22;53641;44.274;19.890;2022-10-22T07:45:51;20.40;95.20
66728;DHT22;53641;44.274;19.890;2022-10-22T07:48:45;20.90;94.30
66728;DHT22;53641;44.274;19.890;2022-10-22T07:51:57;21.30;93.10
66728;DHT22;53641;44.274;19.890;2022-10-22T07:54:58;21.80;92.40
66728;DHT22;53641;44.274;19.890;2022-10-22T07:58:02;22.10;91.60
66728;DHT22;53641;44.274;19.890;2022-10-22T08:01:44;22.40;90.20
66728;DHT22;53641;44.274;19.890;2022-10-22T08:08:17;23.00;88.00
66728;DHT22;53641;44.274;19.890;2022-10-22T08:10:55;23.20;86.20
66728;DHT22;53641;44.274;19.890;2022-10-22T08:16:28;23.50;85.90
66728;DHT22;53641;44.274;19.890;2022-10-22T08:19:26;23.60;85.00
66728;DHT22;53641;44.274;19.890;2022-10-22T08:21:57;23.70;86.20
66728;DHT22;53641;44.274;19.890;2022-10-22T08:24:43;23.80;87.00
66728;DHT22;53641;44.274;19.890;2022-10-22T08:27:41;23.70;83.30
66728;DHT22;53641;44.274;19.890;2022-10-22T08:30:25;23.80;82.50
66728;DHT22;53641;44.274;19.890;2022-10-22T08:32:57;24.00;82.20
66728;DHT22;53641;44.274;19.890;2022-10-22T08:35:37;24.20;81.40
66728;DHT22;53641;44.274;19.890;2022-10-22T08:38:25;24.30;81.90
66728;DHT22;53641;44.274;19.890;2022-10-22T08:41:19;24.10;80.50
66728;DHT22;53641;44.274;19.890;2022-10-22T08:44:06;24.00;78.20
66728;DHT22;53641;44.274;19.890;2022-10-22T08:46:59;23.80;78.60
66728;DHT22;53641;44.274;19.890;2022-10-22T08:49:38;23.70;79.90
66728;DHT22;53641;44.274;19.890;2022-10-22T08:52:21;23.70;80.60
66728;DHT22;53641;44.274;19.890;2022-10-22T08:54:59;23.60;77.60
66728;DHT22;53641;44.274;19.890;2022-10-22T08:58:11;23.50;77.70
66728;DHT22;53641;44.274;19.890;2022-10-22T09:00:59;23.30;78.70
66728;DHT22;53641;44.274;19.890;2022-10-22T09:03:57;23.20;79.00
66728;DHT22;53641;44.274;19.890;2022-10-22T09:06:30;23.00;81.60
66728;DHT22;53641;44.274;19.890;2022-10-22T09:09:08;22.70;81.00
66728;DHT22;53641;44.274;19.890;2022-10-22T09:11:41;22.70;82.00
66728;DHT22;53641;44.274;19.890;2022-10-22T09:14:15;22.60;81.70
66728;DHT22;53641;44.274;19.890;2022-10-22T09:17:09;22.60;81.80
66728;DHT22;53641;44.274;19.890;2022-10-22T09:20:02;22.60;81.80
66728;DHT22;53641;44.274;19.890;2022-10-22T09:22:58;22.50;82.50
66728;DHT22;53641;44.274;19.890;2022-10-22T09:25:41;22.40;83.60
66728;DHT22;53641;44.274;19.890;2022-10-22T09:28:14;22.50;82.00
66728;DHT22;53641;44.274;19.890;2022-10-22T09:30:45;22.60;82.00
66728;DHT22;53641;44.274;19.890;2022-10-22T09:33:25;22.60;82.20
66728;DHT22;53641;44.274;19.890;2022-10-22T09:36:30;22.60;81.50
66728;DHT22;53641;44.274;19.890;2022-10-22T09:38:54;22.70;83.10
66728;DHT22;53641;44.274;19.890;2022-10-22T09:41:41;22.70;84.40
66728;DHT22;53641;44.274;19.890;2022-10-22T09:44:19;22.60;84.30
66728;DHT22;53641;44.274;19.890;2022-10-22T09:46:45;22.60;84.30
66728;DHT22;53641;44.274;19.890;2022-10-22T09:49:15;22.50;84.50
66728;DHT22;53641;44.274;19.890;2022-10-22T09:51:56;22.60;85.20
66728;DHT22;53641;44.274;19.890;2022-10-22T09:54:38;22.70;84.00
66728;DHT22;53641;44.274;19.890;2022-10-22T09:57:45;22.80;82.50
66728;DHT22;53641;44.274;19.890;2022-10-22T10:00:24;22.80;80.30
66728;DHT22;53641;44.274;19.890;2022-10-22T10:03:08;22.60;79.40
66728;DHT22;53641;44.274;19.890;2022-10-22T10:05:48;22.50;79.00
66728;DHT22;53641;44.274;19.890;2022-10-22T10:08:37;22.40;79.80
66728;DHT22;53641;44.274;19.890;2022-10-22T10:11:09;22.50;79.60
66728;DHT22;53641;44.274;19.890;2022-10-22T10:14:09;22.50;80.00
66728;DHT22;53641;44.274;19.890;2022-10-22T10:16:59;22.60;79.60
66728;DHT22;53641;44.274;19.890;2022-10-22T10:19:50;22.90;80.30
66728;DHT22;53641;44.274;19.890;2022-10-22T10:22:40;23.00;77.20
66728;DHT22;53641;44.274;19.890;2022-10-22T10:25:44;23.10;77.70
66728;DHT22;53641;44.274;19.890;2022-10-22T10:28:51;23.20;75.70
66728;DHT22;53641;44.274;19.890;2022-10-22T10:32:15;23.40;75.20
66728;DHT22;53641;44.274;19.890;2022-10-22T10:34:38;23.50;75.70
66728;DHT22;53641;44.274;19.890;2022-10-22T10:37:40;23.50;75.90
66728;DHT22;53641;44.274;19.890;2022-10-22T10:40:25;23.50;74.70
66728;DHT22;53641;44.274;19.890;2022-10-22T10:43:20;23.50;74.70
66728;DHT22;53641;44.274;19.890;2022-10-22T10:46:26;23.50;74.60
66728;DHT22;53641;44.274;19.890;2022-10-22T10:49:07;23.30;74.60
66728;DHT22;53641;44.274;19.890;2022-10-22T10:51:55;23.10;75.00
66728;DHT22;53641;44.274;19.890;2022-10-22T10:54:40;23.10;75.30
66728;DHT22;53641;44.274;19.890;2022-10-22T10:58:05;23.10;76.00
66728;DHT22;53641;44.274;19.890;2022-10-22T11:00:54;23.00;75.50
66728;DHT22;53641;44.274;19.890;2022-10-22T11:03:49;22.90;75.10
66728;DHT22;53641;44.274;19.890;2022-10-22T11:06:32;23.00;74.20
66728;DHT22;53641;44.274;19.890;2022-10-22T11:09:34;23.20;73.90
66728;DHT22;53641;44.274;19.890;2022-10-22T11:12:34;23.40;73.90
66728;DHT22;53641;44.274;19.890;2022-10-22T11:15:27;23.60;73.70
66728;DHT22;53641;44.274;19.890;2022-10-22T11:18:17;23.60;73.90
66728;DHT22;53641;44.274;19.890;2022-10-22T11:21:20;23.60;72.90
66728;DHT22;53641;44.274;19.890;2022-10-22T11:23:54;23.60;73.40
66728;DHT22;53641;44.274;19.890;2022-10-22T11:26:49;23.50;72.90
66728;DHT22;53641;44.274;19.890;2022-10-22T11:29:32;23.40;73.80
66728;DHT22;53641;44.274;19.890;2022-10-22T11:32:16;23.50;72.70
66728;DHT22;53641;44.274;19.890;2022-10-22T11:34:58;23.50;73.10
66728;DHT22;53641;44.274;19.890;2022-10-22T11:37:34;23.50;73.40
66728;DHT22;53641;44.274;19.890;2022-10-22T11:40:37;23.60;72.40
66728;DHT22;53641;44.274;19.890;2022-10-22T11:44:04;23.70;71.10
66728;DHT22;53641;44.274;19.890;2022-10-22T11:46:42;23.80;69.90
66728;DHT22;53641;44.274;19.890;2022-10-22T11:49:18;23.90;70.90
66728;DHT22;53641;44.274;19.890;2022-10-22T11:52:23;23.90;70.70
66728;DHT22;53641;44.274;19.890;2022-10-22T11:54:56;23.90;70.90
66728;DHT22;53641;44.274;19.890;2022-10-22T12:06:52;24.10;69.60
66728;DHT22;53641;44.274;19.890;2022-10-22T12:09:21;24.10;68.80
66728;DHT22;53641;44.274;19.890;2022-10-22T12:11:57;24.10;69.60
66728;DHT22;53641;44.274;19.890;2022-10-22T12:14:36;24.20;69.90
66728;DHT22;53641;44.274;19.890;2022-10-22T12:17:11;24.20;69.70
66728;DHT22;53641;44.274;19.890;2022-10-22T12:19:46;24.30;70.00
66728;DHT22;53641;44.274;19.890;2022-10-22T12:26:19;24.40;70.30
66728;DHT22;53641;44.274;19.890;2022-10-22T12:29:30;24.40;70.70
66728;DHT22;53641;44.274;19.890;2022-10-22T12:32:33;24.40;69.70
66728;DHT22;53641;44.274;19.890;2022-10-22T12:35:40;24.30;68.20
66728;DHT22;53641;44.274;19.890;2022-10-22T12:38:27;24.30;70.90
66728;DHT22;53641;44.274;19.890;2022-10-22T12:40:55;24.30;69.80
66728;DHT22;53641;44.274;19.890;2022-10-22T12:43:46;24.30;70.60
66728;DHT22;53641;44.274;19.890;2022-10-22T12:46:13;24.30;70.60
66728;DHT22;53641;44.274;19.890;2022-10-22T12:48:43;24.30;69.70
66728;DHT22;53641;44.274;19.890;2022-10-22T12:51:16;24.30;69.30
66728;DHT22;53641;44.274;19.890;2022-10-22T12:53:57;24.30;69.70
66728;DHT22;53641;44.274;19.890;2022-10-22T12:56:28;24.30;70.20
66728;DHT22;53641;44.274;19.890;2022-10-22T12:59:01;24.30;70.30
66728;DHT22;53641;44.274;19.890;2022-10-22T13:01:37;24.40;70.20
66728;DHT22;53641;44.274;19.890;2022-10-22T13:04:19;24.50;69.40
66728;DHT22;53641;44.274;19.890;2022-10-22T13:06:49;24.60;70.50
66728;DHT22;53641;44.274;19.890;2022-10-22T13:09:26;24.70;69.80
66728;DHT22;53641;44.274;19.890;2022-10-22T13:12:04;24.60;70.10
66728;DHT22;53641;44.274;19.890;2022-10-22T13:14:32;24.50;69.10
66728;DHT22;53641;44.274;19.890;2022-10-22T13:17:04;24.50;70.20
66728;DHT22;53641;44.274;19.890;2022-10-22T13:19:35;24.50;70.60
66728;DHT22;53641;44.274;19.890;2022-10-22T13:22:41;24.50;71.30
66728;DHT22;53641;44.274;19.890;2022-10-22T13:25:21;24.40;72.60
66728;DHT22;53641;44.274;19.890;2022-10-22T14:21:36;24.50;71.80
66728;DHT22;53641;44.274;19.890;2022-10-22T14:30:35;23.30;73.90
66728;DHT22;53641;44.274;19.890;2022-10-22T14:33:36;23.20;74.80
66728;DHT22;53641;44.274;19.890;2022-10-22T14:40:15;22.90;75.80
66728;DHT22;53641;44.274;19.890;2022-10-22T14:43:04;22.70;76.00
66728;DHT22;53641;44.274;19.890;2022-10-22T14:46:23;22.60;77.20
66728;DHT22;53641;44.274;19.890;2022-10-22T14:52:54;22.20;77.30
66728;DHT22;53641;44.274;19.890;2022-10-22T14:55:57;22.10;77.20
66728;DHT22;53641;44.274;19.890;2022-10-22T14:58:34;21.90;78.30
66728;DHT22;53641;44.274;19.890;2022-10-22T15:01:18;21.80;79.30
66728;DHT22;53641;44.274;19.890;2022-10-22T15:04:18;21.70;80.30
66728;DHT22;53641;44.274;19.890;2022-10-22T15:07:20;21.50;80.90
66728;DHT22;53641;44.274;19.890;2022-10-22T15:10:17;21.40;81.70
66728;DHT22;53641;44.274;19.890;2022-10-22T15:16:44;21.10;82.00
66728;DHT22;53641;44.274;19.890;2022-10-22T15:19:20;21.00;82.30
66728;DHT22;53641;44.274;19.890;2022-10-22T15:21:57;20.90;82.90
66728;DHT22;53641;44.274;19.890;2022-10-22T15:27:32;20.60;84.30
66728;DHT22;53641;44.274;19.890;2022-10-22T15:30:10;20.50;84.20
66728;DHT22;53641;44.274;19.890;2022-10-22T15:32:49;20.50;85.00
66728;DHT22;53641;44.274;19.890;2022-10-22T15:35:17;20.40;85.50
66728;DHT22;53641;44.274;19.890;2022-10-22T15:37:52;20.30;85.80
66728;DHT22;53641;44.274;19.890;2022-10-22T15:40:18;20.30;86.90
66728;DHT22;53641;44.274;19.890;2022-10-22T15:42:59;20.20;87.20
66728;DHT22;53641;44.274;19.890;2022-10-22T15:46:10;20.20;87.30
66728;DHT22;53641;44.274;19.890;2022-10-22T15:48:45;20.10;87.30
66728;DHT22;53641;44.274;19.890;2022-10-22T15:51:36;20.10;87.70
66728;DHT22;53641;44.274;19.890;2022-10-22T15:54:24;20.00;88.60
66728;DHT22;53641;44.274;19.890;2022-10-22T15:56:57;20.00;88.90
66728;DHT22;53641;44.274;19.890;2022-10-22T15:59:53;20.00;89.70
66728;DHT22;53641;44.274;19.890;2022-10-22T16:02:28;19.90;90.00
66728;DHT22;53641;44.274;19.890;2022-10-22T16:04:56;19.80;90.30
66728;DHT22;53641;44.274;19.890;2022-10-22T16:07:45;19.80;90.70
66728;DHT22;53641;44.274;19.890;2022-10-22T16:13:29;19.70;91.50
66728;DHT22;53641;44.274;19.890;2022-10-22T16:16:13;19.60;91.60
66728;DHT22;53641;44.274;19.890;2022-10-22T16:18:39;19.50;91.80
66728;DHT22;53641;44.274;19.890;2022-10-22T16:21:05;19.40;91.90
66728;DHT22;53641;44.274;19.890;2022-10-22T16:23:42;19.40;91.90
66728;DHT22;53641;44.274;19.890;2022-10-22T16:28:57;19.30;92.30
66728;DHT22;53641;44.274;19.890;2022-10-22T16:31:34;19.30;92.20
66728;DHT22;53641;44.274;19.890;2022-10-22T16:34:00;19.30;92.40
66728;DHT22;53641;44.274;19.890;2022-10-22T16:36:33;19.30;92.80
66728;DHT22;53641;44.274;19.890;2022-10-22T16:39:12;19.20;92.70
66728;DHT22;53641;44.274;19.890;2022-10-22T16:42:04;19.20;92.80
66728;DHT22;53641;44.274;19.890;2022-10-22T16:44:57;19.20;92.80
66728;DHT22;53641;44.274;19.890;2022-10-22T16:51:37;19.10;93.00
66728;DHT22;53641;44.274;19.890;2022-10-22T16:54:05;19.00;93.10
66728;DHT22;53641;44.274;19.890;2022-10-22T16:56:36;19.00;93.30
66728;DHT22;53641;44.274;19.890;2022-10-22T16:59:07;18.90;93.40
66728;DHT22;53641;44.274;19.890;2022-10-22T17:01:36;18.80;93.40
66728;DHT22;53641;44.274;19.890;2022-10-22T17:04:11;18.70;93.50
66728;DHT22;53641;44.274;19.890;2022-10-22T17:06:55;18.70;93.80
66728;DHT22;53641;44.274;19.890;2022-10-22T17:09:26;18.70;94.00
66728;DHT22;53641;44.274;19.890;2022-10-22T17:11:57;18.60;94.10
66728;DHT22;53641;44.274;19.890;2022-10-22T17:14:29;18.50;94.10
66728;DHT22;53641;44.274;19.890;2022-10-22T17:16:55;18.50;94.10
66728;DHT22;53641;44.274;19.890;2022-10-22T17:19:24;18.40;94.30
66728;DHT22;53641;44.274;19.890;2022-10-22T17:21:50;18.40;94.40
66728;DHT22;53641;44.274;19.890;2022-10-22T17:24:47;18.30;94.40
66728;DHT22;53641;44.274;19.890;2022-10-22T17:27:49;18.20;94.50
66728;DHT22;53641;44.274;19.890;2022-10-22T17:30:32;18.20;94.50
66728;DHT22;53641;44.274;19.890;2022-10-22T17:33:08;18.20;94.80
66728;DHT22;53641;44.274;19.890;2022-10-22T17:35:38;18.20;95.00
66728;DHT22;53641;44.274;19.890;2022-10-22T17:38:04;18.10;95.10
66728;DHT22;53641;44.274;19.890;2022-10-22T17:40:42;18.10;95.40
66728;DHT22;53641;44.274;19.890;2022-10-22T17:43:07;18.10;95.60
66728;DHT22;53641;44.274;19.890;2022-10-22T17:45:43;18.10;95.70
66728;DHT22;53641;44.274;19.890;2022-10-22T17:48:09;18.00;95.90
66728;DHT22;53641;44.274;19.890;2022-10-22T17:50:39;18.00;95.80
66728;DHT22;53641;44.274;19.890;2022-10-22T17:53:10;18.10;96.10
66728;DHT22;53641;44.274;19.890;2022-10-22T17:55:42;18.10;95.90
66728;DHT22;53641;44.274;19.890;2022-10-22T17:58:11;18.10;95.80